Portada
METAR-TAF:

METAR-TAF

Aeroports :

Ayacucho, Perú

latitud: 13-08S, longitud: 074-13W, altitud: 2740 m

Observació

L'informe es va fer fa 58 minuts, a les 13:00 UTC
Vent 2 kt amb direcció variable
Temperatura 15°C
Humitat 67%
Pressió 1027 hPa
Visibilitat 10 km o més
Escasses núvols a una alçada de 2000 ft
Cel ennuvolat a una alçada de 8000 ft

METAR: SPHO 081300Z VRB02KT 9999 FEW020 BKN080 15/09 Q1027 RMK PP000

Hora: 08:58 (13:58 UTC)

Pronòstic

L'informe es va fer fa 2 hores i 58 minuts, a les 11:00 UTC
Pronòstic vàlid del 08 a les 12 UTC al 09 a les 12 UTC
Vent 4 kt amb direcció variable
Visibilitat 10 km o més
Núvols disperses a una alçada de 3000 ft
Temporalment
l' 08 a les 18 UTC al 08 a les 23 UTC
Escasses núvols a una alçada de 3500 ft, Cumulus congestus.
Cel ennuvolat a una alçada de 10000 ft

TAF: SPHO 081100Z 0812/0912 VRB04KT 9999 SCT030 TX25/0820Z TN11/0911Z TEMPO 0818/0823 FEW035TCU BKN100

Observacions i pronòstics meteorològics de més de 4000 aeroports (METAR i TAF).

Les estacions disponibles són els punts grocs i vermells al mapa.

Posi el ratolí al punt desitjat per veure el nom de l'estació.

Feu clic per veure les observacions i els pronòstics meteorològics.

Per canviar el mapa: feu clic els botons verds amb una creu de color negre per apropar; al botó verd amb un guió per allunyar la imatge; o en les fletxes verdes per a mapes adjacents.


METAR-TAF: